Time;durP1;ratioP1;P1;durP2;ratioP2;P2;SDS_P1;SDS_P2;PMS_P1;PMS_P2;Temp;Humidity;BMP_temperature;BMP_pressure;BME280_temperature;BME280_humidity;BME280_pressure;Samples;Min_cycle;Max_cycle;Signal;HPM_P1;HPM_P2
2023/06/28 00:01:00;;;;;;;8.63;3.40;;;13.80;99.90;;;;;;5017370;28;20247;-58
2023/06/28 00:03:26;;;;;;;13.73;3.73;;;13.70;1.00;;;;;;5017057;28;20195;-60
2023/06/28 00:05:52;;;;;;;8.10;2.87;;;13.70;99.90;;;;;;5017096;28;20652;-59
2023/06/28 00:08:18;;;;;;;9.80;3.30;;;13.70;1.00;;;;;;5017418;28;20423;-59
2023/06/28 00:10:44;;;;;;;8.80;3.43;;;13.70;1.00;;;;;;5016883;28;20426;-58
2023/06/28 00:13:09;;;;;;;12.20;3.30;;;13.60;1.00;;;;;;5017114;28;20191;-58
2023/06/28 00:15:35;;;;;;;9.53;3.40;;;13.60;99.90;;;;;;5017053;28;20295;-57
2023/06/28 00:18:02;;;;;;;8.13;3.40;;;13.60;99.90;;;;;;5016863;28;20379;-59
2023/06/28 00:20:28;;;;;;;7.60;3.50;;;13.60;1.00;;;;;;5016888;28;20643;-59
2023/06/28 00:22:54;;;;;;;8.93;3.20;;;13.60;64.80;;;;;;5016966;28;20824;-59
2023/06/28 00:25:20;;;;;;;6.37;3.40;;;13.60;1.00;;;;;;5016805;28;20474;-59
2023/06/28 00:27:46;;;;;;;7.23;3.50;;;13.60;99.90;;;;;;5016730;28;20748;-58
2023/06/28 00:30:12;;;;;;;7.90;3.00;;;13.60;57.60;;;;;;5016556;28;20419;-59
2023/06/28 00:32:38;;;;;;;8.53;3.20;;;13.60;38.60;;;;;;5016811;28;20248;-58
2023/06/28 00:35:05;;;;;;;10.00;3.80;;;13.50;1.00;;;;;;5016429;28;20947;-58
2023/06/28 00:37:31;;;;;;;7.57;3.30;;;13.50;1.00;;;;;;5016827;28;20188;-57
2023/06/28 00:39:57;;;;;;;13.20;3.73;;;13.50;99.90;;;;;;5016581;28;20519;-57
2023/06/28 00:42:23;;;;;;;11.60;3.00;;;13.50;99.90;;;;;;5016536;28;20515;-57
2023/06/28 00:44:49;;;;;;;9.27;3.13;;;13.50;1.00;;;;;;5016481;28;20185;-57
2023/06/28 00:47:15;;;;;;;6.43;2.90;;;13.50;1.00;;;;;;5015068;28;20184;-58
2023/06/28 00:49:42;;;;;;;8.50;3.33;;;13.50;1.00;;;;;;5016578;28;20526;-58
2023/06/28 00:52:09;;;;;;;6.57;3.60;;;13.40;1.00;;;;;;5016576;28;20504;-56
2023/06/28 00:54:35;;;;;;;7.23;3.67;;;13.50;1.00;;;;;;5015990;28;20617;-58
2023/06/28 00:57:01;;;;;;;7.80;3.67;;;13.40;7.00;;;;;;5016232;28;20517;-59
2023/06/28 00:59:27;;;;;;;11.40;4.27;;;13.40;99.90;;;;;;5016626;28;20185;-57
2023/06/28 01:01:54;;;;;;;5.93;3.70;;;13.40;99.90;;;;;;5016225;28;20430;-57
2023/06/28 01:04:20;;;;;;;9.27;3.70;;;13.40;99.90;;;;;;5015864;28;20391;-57
2023/06/28 01:06:51;;;;;;;5.97;3.20;;;13.40;99.90;;;;;;5015777;28;20557;-57
2023/06/28 01:09:19;;;;;;;10.07;3.60;;;13.40;99.90;;;;;;5015701;28;20172;-57
2023/06/28 01:11:46;;;;;;;11.70;4.00;;;13.40;99.90;;;;;;5016227;28;20476;-58
2023/06/28 01:14:12;;;;;;;10.80;3.87;;;13.40;99.90;;;;;;5016159;28;20781;-58
2023/06/28 01:16:39;;;;;;;8.97;3.80;;;13.40;99.90;;;;;;5015759;28;20586;-58
2023/06/28 01:19:06;;;;;;;12.43;4.33;;;13.40;99.90;;;;;;5015688;28;20979;-57
2023/06/28 01:21:35;;;;;;;6.77;3.73;;;13.40;99.90;;;;;;5015940;28;20431;-58
2023/06/28 01:24:00;;;;;;;12.37;4.10;;;13.40;99.90;;;;;;5016010;28;20776;-58
2023/06/28 01:26:27;;;;;;;7.60;4.13;;;13.40;99.90;;;;;;5015479;28;20415;-58
2023/06/28 01:28:53;;;;;;;10.10;4.20;;;13.40;99.90;;;;;;5015654;28;20188;-58
2023/06/28 01:31:19;;;;;;;14.47;3.90;;;13.40;99.90;;;;;;5015780;28;20411;-58
2023/06/28 01:33:46;;;;;;;8.93;4.33;;;13.40;99.90;;;;;;5015400;28;20454;-57
2023/06/28 01:36:12;;;;;;;12.37;4.20;;;13.40;99.90;;;;;;5015764;28;20222;-58
2023/06/28 01:38:39;;;;;;;9.27;3.90;;;13.40;99.90;;;;;;5015362;28;20415;-57
2023/06/28 01:41:07;;;;;;;10.40;3.93;;;13.50;99.90;;;;;;5015351;28;20639;-59
2023/06/28 01:43:33;;;;;;;13.13;4.53;;;13.50;99.90;;;;;;5015009;28;20430;-57
2023/06/28 01:45:59;;;;;;;11.57;4.50;;;13.50;99.90;;;;;;5015489;28;20415;-58
2023/06/28 01:48:25;;;;;;;10.47;4.33;;;13.50;99.90;;;;;;5015405;28;20184;-59
2023/06/28 01:50:51;;;;;;;13.40;4.37;;;13.50;99.90;;;;;;5015566;28;20462;-58
2023/06/28 01:53:18;;;;;;;8.50;4.43;;;13.60;99.90;;;;;;5014710;28;20946;-58
2023/06/28 01:55:44;;;;;;;10.30;4.23;;;13.50;99.90;;;;;;5015046;28;20466;-58
2023/06/28 01:58:10;;;;;;;11.40;4.30;;;13.50;99.90;;;;;;5015190;28;20416;-60
2023/06/28 02:00:35;;;;;;;8.97;3.97;;;13.50;99.90;;;;;;5015005;28;20917;-55
2023/06/28 02:03:01;;;;;;;11.37;4.33;;;13.50;99.90;;;;;;5014927;28;20187;-58
2023/06/28 02:05:28;;;;;;;8.67;4.47;;;13.60;99.90;;;;;;5014617;28;20660;-58
2023/06/28 02:07:53;;;;;;;9.40;4.50;;;13.60;99.90;;;;;;5014713;28;20526;-58
2023/06/28 02:10:23;;;;;;;11.00;4.30;;;13.60;99.90;;;;;;5014958;28;20422;-58
2023/06/28 02:12:49;;;;;;;12.93;4.63;;;13.60;99.90;;;;;;5014860;28;20193;-57
2023/06/28 02:15:14;;;;;;;12.33;4.20;;;13.60;99.90;;;;;;5014747;28;20469;-58
2023/06/28 02:17:40;;;;;;;9.17;4.33;;;13.70;99.90;;;;;;5014632;28;20210;-58
2023/06/28 02:20:08;;;;;;;7.30;4.70;;;13.80;99.90;;;;;;5014903;28;20188;-61
2023/06/28 02:22:34;;;;;;;12.90;4.70;;;13.80;99.90;;;;;;5014593;28;20622;-57
2023/06/28 02:25:00;;;;;;;7.93;4.10;;;13.90;99.90;;;;;;5014713;28;20420;-57
2023/06/28 02:27:25;;;;;;;13.67;4.50;;;13.90;99.90;;;;;;5014217;28;20227;-58
2023/06/28 02:29:51;;;;;;;14.07;4.80;;;14.00;99.90;;;;;;5014818;28;20185;-58
2023/06/28 02:32:16;;;;;;;13.50;4.20;;;14.00;99.90;;;;;;5014179;28;20216;-58
2023/06/28 02:34:42;;;;;;;10.23;5.23;;;14.00;99.90;;;;;;5013931;28;20180;-58
2023/06/28 02:37:08;;;;;;;14.43;5.70;;;13.90;99.90;;;;;;5014680;28;20283;-59
2023/06/28 02:39:33;;;;;;;9.30;4.73;;;14.00;99.90;;;;;;5014363;28;20658;-59
2023/06/28 02:41:59;;;;;;;14.13;5.57;;;14.00;99.90;;;;;;5014665;28;20196;-58
2023/06/28 02:44:24;;;;;;;12.10;5.20;;;14.00;99.90;;;;;;5014498;28;20657;-56
2023/06/28 02:46:50;;;;;;;16.97;5.47;;;14.10;99.90;;;;;;5014312;28;20188;-58
2023/06/28 02:49:16;;;;;;;15.50;4.90;;;14.00;99.90;;;;;;5014163;28;20545;-59
2023/06/28 02:51:41;;;;;;;13.10;4.97;;;14.00;99.90;;;;;;5014131;28;20524;-58
2023/06/28 02:54:07;;;;;;;12.60;5.37;;;13.90;99.90;;;;;;5014219;28;20240;-56
2023/06/28 02:56:33;;;;;;;19.70;5.53;;;14.00;99.90;;;;;;5013954;28;20224;-59
2023/06/28 02:59:00;;;;;;;13.63;5.50;;;13.90;99.90;;;;;;5013881;28;20239;-58
2023/06/28 03:01:26;;;;;;;10.30;5.37;;;13.90;99.90;;;;;;5014132;28;20853;-58
2023/06/28 03:03:52;;;;;;;12.77;5.73;;;13.90;99.90;;;;;;5013805;28;20280;-58
2023/06/28 03:06:18;;;;;;;9.47;5.07;;;13.90;99.90;;;;;;5013967;28;20188;-59
2023/06/28 03:08:44;;;;;;;16.63;6.00;;;13.90;99.90;;;;;;5014115;28;20420;-58
2023/06/28 03:11:09;;;;;;;12.80;5.83;;;13.90;99.90;;;;;;5014146;28;20421;-58
2023/06/28 03:13:35;;;;;;;12.70;5.90;;;13.90;99.90;;;;;;5014025;28;20249;-58
2023/06/28 03:16:01;;;;;;;15.93;6.50;;;13.90;99.90;;;;;;5013910;28;20219;-57
2023/06/28 03:18:27;;;;;;;14.87;5.90;;;13.90;99.90;;;;;;5013986;28;20188;-58
2023/06/28 03:20:53;;;;;;;13.30;5.70;;;13.90;99.90;;;;;;5013339;28;20176;-58
2023/06/28 03:23:18;;;;;;;12.70;5.80;;;14.00;99.90;;;;;;5013934;28;20411;-57
2023/06/28 03:25:44;;;;;;;10.50;5.57;;;14.00;99.90;;;;;;5014008;28;20185;-58
2023/06/28 03:28:11;;;;;;;16.70;6.03;;;14.10;99.90;;;;;;5014861;28;20233;-58
2023/06/28 03:30:37;;;;;;;15.77;6.60;;;14.10;99.90;;;;;;5017792;28;20231;-59
2023/06/28 03:33:03;;;;;;;15.43;6.17;;;14.20;99.90;;;;;;5017691;28;20944;-58
2023/06/28 03:35:28;;;;;;;22.67;6.87;;;14.20;99.90;;;;;;5017778;28;20240;-58
2023/06/28 03:37:55;;;;;;;15.33;6.53;;;14.30;99.90;;;;;;5017977;28;20465;-57
2023/06/28 03:40:22;;;;;;;9.73;6.40;;;14.30;99.90;;;;;;5017789;28;20187;-58
2023/06/28 03:42:48;;;;;;;14.90;6.57;;;14.30;99.90;;;;;;5017999;28;20423;-58
2023/06/28 03:45:16;;;;;;;19.03;6.50;;;14.30;99.90;;;;;;5017758;28;20903;-57
2023/06/28 03:47:42;;;;;;;10.10;6.37;;;14.30;99.90;;;;;;5017241;28;20415;-58
2023/06/28 03:50:08;;;;;;;14.33;6.23;;;14.30;99.90;;;;;;5017588;28;20415;-59
2023/06/28 03:52:35;;;;;;;21.53;7.10;;;14.30;99.90;;;;;;5017590;28;20204;-58
2023/06/28 03:55:01;;;;;;;18.10;6.23;;;14.30;99.90;;;;;;5017081;28;20462;-57
2023/06/28 03:57:26;;;;;;;18.30;6.20;;;14.30;99.90;;;;;;5017121;28;20418;-58
2023/06/28 03:59:52;;;;;;;16.40;6.80;;;14.40;99.90;;;;;;5017361;28;20180;-58
2023/06/28 04:02:18;;;;;;;19.10;6.23;;;14.40;99.90;;;;;;5017634;28;20184;-58
2023/06/28 04:04:43;;;;;;;9.97;5.70;;;14.40;99.90;;;;;;5017366;28;20180;-58
2023/06/28 04:07:09;;;;;;;18.67;6.17;;;14.50;99.90;;;;;;5017427;28;20188;-59
2023/06/28 04:09:34;;;;;;;10.80;5.60;;;14.50;99.90;;;;;;5017284;28;20214;-59
2023/06/28 04:12:00;;;;;;;16.57;6.23;;;14.50;31.00;;;;;;5017317;28;20554;-57
2023/06/28 04:14:26;;;;;;;12.37;5.57;;;14.60;18.90;;;;;;5017572;28;20196;-57
2023/06/28 04:16:52;;;;;;;12.57;5.73;;;14.60;1.00;;;;;;5017266;28;20203;-57
2023/06/28 04:19:18;;;;;;;11.70;5.30;;;14.70;1.00;;;;;;5016572;28;20538;-58
2023/06/28 04:21:43;;;;;;;13.77;5.20;;;14.70;1.00;;;;;;5016878;28;20427;-58
2023/06/28 04:24:09;;;;;;;11.47;5.00;;;14.70;1.00;;;;;;5017043;28;20203;-59
2023/06/28 04:26:34;;;;;;;24.10;5.90;;;14.70;1.00;;;;;;5016976;28;20704;-58
2023/06/28 04:29:00;;;;;;;10.87;5.17;;;14.80;99.90;;;;;;5016933;28;20188;-57
2023/06/28 04:31:27;;;;;;;14.27;4.70;;;14.90;13.90;;;;;;5016975;28;20185;-57
2023/06/28 04:33:55;;;;;;;12.17;4.90;;;14.90;22.00;;;;;;5016680;28;20184;-57
2023/06/28 04:36:21;;;;;;;11.23;5.33;;;15.00;99.90;;;;;;5016631;28;20809;-58
2023/06/28 04:38:52;;;;;;;9.97;4.63;;;15.10;99.90;;;;;;5016205;28;20421;-57
2023/06/28 04:41:19;;;;;;;13.07;5.40;;;15.10;99.90;;;;;;5015839;28;20408;-56
2023/06/28 04:43:45;;;;;;;11.27;4.87;;;15.30;1.00;;;;;;5016638;28;20413;-58
2023/06/28 04:46:11;;;;;;;11.80;4.90;;;15.40;1.00;;;;;;5016290;28;20577;-58
2023/06/28 04:48:41;;;;;;;11.83;4.43;;;15.50;1.00;;;;;;5016517;28;20758;-57
2023/06/28 04:51:07;;;;;;;11.63;4.00;;;15.70;1.00;;;;;;5016075;28;20970;-58
2023/06/28 04:53:32;;;;;;;8.83;4.83;;;15.70;99.90;;;;;;5015565;28;20475;-57
2023/06/28 04:56:00;;;;;;;12.30;4.30;;;15.80;1.00;;;;;;5016152;28;20210;-56
2023/06/28 04:58:26;;;;;;;10.63;4.37;;;15.90;99.90;;;;;;5016320;28;20196;-57
2023/06/28 05:00:51;;;;;;;12.20;3.90;;;16.00;1.00;;;;;;5016239;28;20761;-57
2023/06/28 05:03:17;;;;;;;10.37;4.23;;;16.10;99.90;;;;;;5016206;28;20647;-58
2023/06/28 05:05:43;;;;;;;8.13;3.90;;;16.20;99.90;;;;;;5016291;28;20286;-57
2023/06/28 05:08:09;;;;;;;9.50;3.80;;;16.30;99.90;;;;;;5015768;28;20186;-57
2023/06/28 05:10:36;;;;;;;11.67;3.83;;;16.30;93.20;;;;;;5015928;28;20254;-58
2023/06/28 05:13:02;;;;;;;10.20;4.47;;;16.40;16.40;;;;;;5015861;28;20925;-57
2023/06/28 05:15:32;;;;;;;9.57;3.33;;;16.50;1.00;;;;;;5015821;28;20509;-58
2023/06/28 05:17:58;;;;;;;13.20;3.80;;;16.60;1.00;;;;;;5016190;28;20771;-58
2023/06/28 05:20:24;;;;;;;8.77;3.57;;;16.80;1.00;;;;;;5015961;28;20429;-57
2023/06/28 05:22:50;;;;;;;11.47;3.30;;;16.90;99.90;;;;;;5016033;28;20414;-57
2023/06/28 05:25:16;;;;;;;9.30;3.20;;;16.90;99.90;;;;;;5015960;28;20503;-57
2023/06/28 05:27:42;;;;;;;9.47;3.20;;;17.00;99.90;;;;;;5014463;28;20665;-57
2023/06/28 05:30:09;;;;;;;11.97;3.80;;;17.10;99.90;;;;;;5015963;28;20420;-57
2023/06/28 05:32:34;;;;;;;8.97;4.00;;;17.20;99.90;;;;;;5016107;28;20183;-59
2023/06/28 05:35:02;;;;;;;11.17;3.60;;;17.30;99.90;;;;;;5015777;28;20979;-57
2023/06/28 05:37:28;;;;;;;11.17;3.40;;;17.40;99.90;;;;;;5015734;28;20824;-57
2023/06/28 05:39:54;;;;;;;10.33;3.10;;;17.60;99.90;;;;;;5015579;28;20430;-58
2023/06/28 05:42:21;;;;;;;12.50;3.80;;;17.60;62.60;;;;;;5015294;28;20473;-56
2023/06/28 05:44:47;;;;;;;14.67;3.70;;;17.70;41.80;;;;;;5015100;28;20190;-58
2023/06/28 05:47:12;;;;;;;7.20;2.97;;;17.90;1.00;;;;;;5015044;28;20437;-57
2023/06/28 05:49:39;;;;;;;7.33;2.97;;;18.10;1.00;;;;;;5015256;28;20186;-58
2023/06/28 05:52:05;;;;;;;7.43;2.80;;;18.00;1.00;;;;;;5014848;28;20191;-57
2023/06/28 05:54:31;;;;;;;10.10;3.67;;;18.30;1.00;;;;;;5014613;28;20544;-57
2023/06/28 05:56:57;;;;;;;7.17;2.70;;;18.50;1.00;;;;;;5014756;28;20946;-57
2023/06/28 05:59:23;;;;;;;8.57;3.00;;;18.80;1.00;;;;;;5014938;28;20562;-56
2023/06/28 06:01:49;;;;;;;8.90;3.00;;;18.80;1.00;;;;;;5013743;28;20516;-58
2023/06/28 06:04:14;;;;;;;7.63;2.53;;;18.90;1.00;;;;;;5014914;28;20418;-57
2023/06/28 06:06:40;;;;;;;8.07;2.57;;;19.10;1.00;;;;;;5014950;28;20194;-58
2023/06/28 06:09:05;;;;;;;14.20;3.20;;;19.30;1.00;;;;;;5015191;28;20706;-58
2023/06/28 06:11:31;;;;;;;9.53;2.67;;;19.40;1.00;;;;;;5014746;28;20186;-57
2023/06/28 06:13:56;;;;;;;10.50;3.13;;;19.40;1.00;;;;;;5014797;28;20187;-57
2023/06/28 06:16:22;;;;;;;7.67;2.47;;;19.40;1.00;;;;;;5014556;28;20210;-57
2023/06/28 06:18:47;;;;;;;9.90;2.93;;;19.50;1.00;;;;;;5013464;28;20265;-57
2023/06/28 06:21:13;;;;;;;13.27;3.50;;;19.40;1.00;;;;;;5014970;28;20183;-57
2023/06/28 06:23:39;;;;;;;10.70;3.27;;;19.30;1.00;;;;;;5014779;28;20176;-58
2023/06/28 06:26:04;;;;;;;6.33;2.90;;;19.30;1.00;;;;;;5014687;28;20714;-58
2023/06/28 06:28:30;;;;;;;10.10;2.97;;;19.30;1.00;;;;;;5014755;28;20189;-57
2023/06/28 06:30:55;;;;;;;11.00;2.77;;;19.40;1.00;;;;;;5014212;28;20311;-57
2023/06/28 06:33:21;;;;;;;10.90;2.70;;;19.40;1.00;;;;;;5014821;28;20193;-57
2023/06/28 06:35:48;;;;;;;7.60;2.37;;;19.60;1.00;;;;;;5014580;28;20249;-58
2023/06/28 06:38:13;;;;;;;7.47;2.17;;;19.90;1.00;;;;;;5014571;28;20192;-58
2023/06/28 06:40:39;;;;;;;10.17;2.70;;;19.90;1.00;;;;;;5014740;28;20422;-58
2023/06/28 06:43:04;;;;;;;6.17;2.70;;;19.70;1.00;;;;;;5014475;28;20544;-58
2023/06/28 06:45:30;;;;;;;4.83;2.30;;;19.60;1.00;;;;;;5014505;28;20623;-58
2023/06/28 06:47:56;;;;;;;4.00;2.00;;;19.80;1.00;;;;;;5014506;28;20187;-58
2023/06/28 06:50:21;;;;;;;9.13;2.40;;;19.70;1.00;;;;;;5014276;28;20187;-58
2023/06/28 06:52:47;;;;;;;7.37;2.33;;;19.70;1.00;;;;;;5013871;28;20283;-58
2023/06/28 06:55:12;;;;;;;9.67;2.70;;;19.60;1.00;;;;;;5014500;28;20544;-58
2023/06/28 06:57:38;;;;;;;6.90;2.43;;;19.60;1.00;;;;;;5014423;28;20322;-56
2023/06/28 07:00:05;;;;;;;13.90;2.63;;;20.10;1.00;;;;;;5014234;28;20186;-58
2023/06/28 07:02:30;;;;;;;4.70;2.60;;;20.40;1.00;;;;;;5013259;28;20191;-55
2023/06/28 07:04:56;;;;;;;7.73;2.43;;;20.60;1.00;;;;;;5013007;28;20418;-58
2023/06/28 07:07:21;;;;;;;7.60;2.50;;;21.00;1.00;;;;;;5014181;28;20179;-57
2023/06/28 07:09:47;;;;;;;10.93;2.63;;;21.50;1.00;;;;;;5013865;28;20186;-59
2023/06/28 07:12:13;;;;;;;4.80;2.40;;;22.10;1.00;;;;;;5013677;28;20200;-57
2023/06/28 07:14:38;;;;;;;6.63;2.53;;;22.60;1.00;;;;;;5014261;28;20250;-58
2023/06/28 07:17:04;;;;;;;13.70;3.00;;;22.30;1.00;;;;;;5014138;28;20549;-58
2023/06/28 07:19:30;;;;;;;12.90;2.43;;;21.60;1.00;;;;;;5014395;28;20183;-58
2023/06/28 07:21:55;;;;;;;3.13;2.20;;;20.70;1.00;;;;;;5014119;28;20205;-58
2023/06/28 07:24:21;;;;;;;4.73;2.40;;;20.70;1.00;;;;;;5013932;28;20518;-58
2023/06/28 07:26:46;;;;;;;7.10;2.97;;;20.80;1.00;;;;;;5013473;28;20182;-58
2023/06/28 07:29:12;;;;;;;8.67;2.70;;;21.00;1.00;;;;;;5014095;28;20243;-58
2023/06/28 07:31:38;;;;;;;8.67;2.50;;;20.80;1.00;;;;;;5013631;28;20194;-58
2023/06/28 07:34:06;;;;;;;7.13;2.37;;;20.70;1.00;;;;;;5013872;28;20183;-58
2023/06/28 07:36:32;;;;;;;4.90;2.60;;;20.90;1.00;;;;;;5013999;28;20207;-58
2023/06/28 07:38:58;;;;;;;7.80;2.40;;;21.50;1.00;;;;;;5014256;28;20419;-57
2023/06/28 07:41:24;;;;;;;9.50;2.60;;;22.10;1.00;;;;;;5013441;28;20951;-58
2023/06/28 07:43:49;;;;;;;9.33;2.60;;;22.20;1.00;;;;;;5013793;28;20550;-58
2023/06/28 07:46:16;;;;;;;8.63;2.90;;;22.00;1.00;;;;;;5013990;28;20523;-58
2023/06/28 07:48:41;;;;;;;6.67;2.43;;;21.40;1.00;;;;;;5013884;28;20551;-57
2023/06/28 07:51:07;;;;;;;8.23;2.87;;;20.80;1.00;;;;;;5013475;28;20418;-58
2023/06/28 07:53:33;;;;;;;8.90;2.43;;;20.30;1.00;;;;;;5013412;28;20634;-58
2023/06/28 07:55:58;;;;;;;7.03;2.70;;;19.90;1.00;;;;;;5013353;28;20211;-57
2023/06/28 07:58:24;;;;;;;9.23;2.67;;;20.10;1.00;;;;;;5013754;28;20270;-58
2023/06/28 08:00:49;;;;;;;6.40;2.50;;;20.70;1.00;;;;;;5014058;28;20620;-58
2023/06/28 08:03:15;;;;;;;5.77;2.50;;;21.60;1.00;;;;;;5014139;28;20518;-58
2023/06/28 08:05:41;;;;;;;6.00;2.93;;;22.40;1.00;;;;;;5013866;28;20238;-58
2023/06/28 08:08:07;;;;;;;6.37;2.80;;;23.10;1.00;;;;;;5013344;28;20222;-56
2023/06/28 08:10:32;;;;;;;8.03;2.40;;;23.80;1.00;;;;;;5013369;28;20216;-57
2023/06/28 08:12:58;;;;;;;11.43;2.83;;;24.30;1.00;;;;;;5013743;28;20174;-56
2023/06/28 08:15:24;;;;;;;9.20;2.80;;;24.70;99.90;;;;;;5016476;28;20658;-56
2023/06/28 08:17:49;;;;;;;6.97;2.60;;;24.90;99.90;;;;;;5017167;28;20443;-57
2023/06/28 08:20:15;;;;;;;10.70;2.70;;;24.30;99.90;;;;;;5016789;28;20225;-57
2023/06/28 08:22:41;;;;;;;5.27;2.53;;;23.40;99.90;;;;;;5016958;28;20237;-57
2023/06/28 08:25:07;;;;;;;6.73;2.90;;;22.60;99.90;;;;;;5017003;28;20187;-56
2023/06/28 08:27:32;;;;;;;6.97;3.10;;;21.80;99.90;;;;;;5016793;28;20269;-55
2023/06/28 08:29:58;;;;;;;6.80;3.50;;;21.20;99.90;;;;;;5016663;28;20193;-55
2023/06/28 08:32:24;;;;;;;9.30;2.93;;;21.10;99.90;;;;;;5016724;28;20270;-58
2023/06/28 08:34:49;;;;;;;5.50;3.23;;;21.80;1.00;;;;;;5016604;28;20216;-57
2023/06/28 08:37:16;;;;;;;9.20;3.13;;;22.80;1.00;;;;;;5016617;28;20195;-57
2023/06/28 08:39:42;;;;;;;6.67;3.03;;;23.90;99.90;;;;;;5016586;28;20627;-56
2023/06/28 08:42:08;;;;;;;6.07;2.63;;;24.70;99.90;;;;;;5016098;28;20465;-56
2023/06/28 08:44:35;;;;;;;12.90;3.10;;;24.90;99.90;;;;;;5016474;28;20180;-56
2023/06/28 08:47:02;;;;;;;6.33;3.00;;;24.40;99.90;;;;;;5016472;28;20429;-56
2023/06/28 08:49:32;;;;;;;7.27;2.93;;;23.70;99.90;;;;;;5016292;28;20936;-57
2023/06/28 08:51:59;;;;;;;6.93;2.87;;;23.00;99.90;;;;;;5016596;28;20539;-56
2023/06/28 08:54:28;;;;;;;8.50;2.67;;;22.80;99.90;;;;;;5016428;28;20514;-57
2023/06/28 08:56:57;;;;;;;5.13;2.47;;;23.30;99.90;;;;;;5015980;28;20473;-57
2023/06/28 08:59:23;;;;;;;10.10;2.90;;;24.10;99.90;;;;;;5016685;28;20529;-57
2023/06/28 09:01:54;;;;;;;5.43;2.93;;;25.30;99.90;;;;;;5015976;28;20512;-57
2023/06/28 09:04:27;;;;;;;5.37;2.30;;;25.80;99.90;;;;;;5016506;28;20218;-56
2023/06/28 09:06:53;;;;;;;7.90;2.80;;;25.80;99.90;;;;;;5016038;28;20772;-56
2023/06/28 09:09:19;;;;;;;6.47;2.93;;;25.20;99.90;;;;;;5016285;28;20477;-56
2023/06/28 09:11:45;;;;;;;9.70;3.03;;;24.00;99.90;;;;;;5016236;28;20467;-56
2023/06/28 09:14:12;;;;;;;13.33;3.57;;;22.80;99.90;;;;;;5016128;28;20773;-56
2023/06/28 09:16:37;;;;;;;8.90;3.47;;;22.80;99.90;;;;;;5015944;28;20946;-56
2023/06/28 09:19:03;;;;;;;9.63;2.63;;;23.60;99.90;;;;;;5015961;28;20566;-55
2023/06/28 09:21:29;;;;;;;8.80;2.63;;;24.40;99.90;;;;;;5016350;28;20599;-56
2023/06/28 09:23:55;;;;;;;6.13;2.70;;;24.80;99.90;;;;;;5016048;28;20186;-56
2023/06/28 09:26:29;;;;;;;7.50;3.10;;;24.60;99.90;;;;;;5015279;28;20932;-56
2023/06/28 09:28:59;;;;;;;8.83;3.00;;;24.90;99.90;;;;;;5016016;28;20186;-57
2023/06/28 09:31:24;;;;;;;5.20;3.00;;;24.70;99.90;;;;;;5014436;28;20510;-56
2023/06/28 09:33:53;;;;;;;11.13;2.60;;;24.40;99.90;;;;;;5015774;28;20462;-56
2023/06/28 09:36:19;;;;;;;9.13;3.20;;;23.90;99.90;;;;;;5015580;28;20217;-56
2023/06/28 09:38:45;;;;;;;7.63;3.00;;;23.00;99.90;;;;;;5015497;28;20505;-56
2023/06/28 09:41:10;;;;;;;7.43;2.60;;;22.50;99.90;;;;;;5015640;28;20191;-56
2023/06/28 09:43:37;;;;;;;6.33;3.10;;;22.00;99.90;;;;;;5015531;28;20194;-55
2023/06/28 09:46:13;;;;;;;10.97;2.57;;;22.00;99.90;;;;;;5015681;28;20186;-56
2023/06/28 09:48:43;;;;;;;9.97;2.70;;;22.90;99.90;;;;;;5015033;28;20451;-56
2023/06/28 09:51:11;;;;;;;8.53;2.70;;;24.10;99.90;;;;;;5015053;28;20421;-56
2023/06/28 09:53:49;;;;;;;5.53;2.67;;;25.00;99.90;;;;;;5014718;28;20502;-56
2023/06/28 09:56:16;;;;;;;5.57;2.20;;;25.70;99.90;;;;;;5015508;28;20446;-55
2023/06/28 09:58:47;;;;;;;6.47;2.60;;;25.90;99.90;;;;;;5015368;28;20461;-56
2023/06/28 10:01:16;;;;;;;5.23;2.70;;;26.30;99.90;;;;;;5015470;28;20490;-55
2023/06/28 10:03:44;;;;;;;10.67;2.60;;;26.80;99.90;;;;;;5015067;28;20502;-55
2023/06/28 10:06:10;;;;;;;9.43;2.47;;;27.00;99.90;;;;;;5015086;28;20418;-57
2023/06/28 10:08:36;;;;;;;4.37;2.40;;;26.90;99.90;;;;;;5015077;28;20418;-56
2023/06/28 10:11:03;;;;;;;5.17;2.43;;;26.80;99.90;;;;;;5014691;28;20439;-55
2023/06/28 10:13:29;;;;;;;7.93;3.10;;;26.90;99.90;;;;;;5014856;28;20510;-55
2023/06/28 10:16:15;;;;;;;4.97;2.03;;;26.90;99.90;;;;;;5014798;28;20459;-54
2023/06/28 10:18:41;;;;;;;4.40;2.37;;;27.30;99.90;;;;;;5014615;28;20606;-56
2023/06/28 10:21:08;;;;;;;5.97;2.97;;;28.00;99.90;;;;;;5014504;28;20766;-55
2023/06/28 10:23:35;;;;;;;6.10;2.50;;;28.40;99.90;;;;;;5014344;28;20927;-55
2023/06/28 10:26:05;;;;;;;5.30;2.60;;;28.40;99.90;;;;;;5014865;28;20887;-55
2023/06/28 10:28:35;;;;;;;6.17;2.13;;;28.50;99.90;;;;;;5014111;28;20415;-55
2023/06/28 10:31:03;;;;;;;3.17;2.20;;;27.60;99.90;;;;;;5014543;28;20424;-54
2023/06/28 10:33:32;;;;;;;3.83;2.43;;;26.30;99.90;;;;;;5014489;28;20828;-55
2023/06/28 10:36:02;;;;;;;3.57;2.23;;;25.40;99.90;;;;;;5014421;28;21032;-54
2023/06/28 10:38:32;;;;;;;4.60;2.07;;;24.40;99.90;;;;;;5013415;28;20427;-53
2023/06/28 10:40:58;;;;;;;4.27;2.00;;;23.70;99.90;;;;;;5014882;28;20419;-54
2023/06/28 10:43:24;;;;;;;5.63;2.03;;;24.50;99.90;;;;;;5014451;28;20426;-55
2023/06/28 10:45:52;;;;;;;5.83;2.27;;;25.20;99.90;;;;;;5014369;28;20191;-55
2023/06/28 10:48:21;;;;;;;3.67;1.80;;;26.20;99.90;;;;;;5014522;28;20419;-55
2023/06/28 10:50:49;;;;;;;5.23;2.10;;;27.10;99.90;;;;;;5014329;28;20423;-55
2023/06/28 10:53:28;;;;;;;7.27;1.93;;;27.50;99.90;;;;;;5013801;28;20514;-55
2023/06/28 10:56:13;;;;;;;4.93;1.90;;;27.80;99.90;;;;;;5013856;28;20562;-55
2023/06/28 10:58:43;;;;;;;3.90;2.00;;;28.20;99.90;;;;;;5013945;28;20983;-55
2023/06/28 11:01:30;;;;;;;7.00;2.07;;;28.20;99.90;;;;;;5014216;28;20510;-54
2023/06/28 11:04:11;;;;;;;3.80;1.90;;;28.00;99.90;;;;;;5013716;28;20838;-54
2023/06/28 11:06:38;;;;;;;6.30;2.27;;;28.60;99.90;;;;;;5013545;28;20407;-55
2023/06/28 11:09:16;;;;;;;4.13;1.87;;;29.10;99.90;;;;;;5014045;28;20777;-55
2023/06/28 11:11:41;;;;;;;3.90;1.80;;;29.60;99.90;;;;;;5013648;28;20950;-54
2023/06/28 11:14:25;;;;;;;7.90;2.03;;;29.50;99.90;;;;;;5013002;28;20454;-52
2023/06/28 11:16:52;;;;;;;3.63;1.97;;;29.20;99.90;;;;;;5013347;28;20656;-52
2023/06/28 11:19:20;;;;;;;5.97;2.03;;;28.30;99.90;;;;;;5013919;28;20441;-53
2023/06/28 11:21:59;;;;;;;3.53;2.10;;;26.90;99.90;;;;;;5013654;28;20430;-53
2023/06/28 11:24:53;;;;;;;4.83;2.20;;;25.30;99.90;;;;;;5013909;28;20753;-55
2023/06/28 11:27:21;;;;;;;6.37;2.13;;;24.60;99.90;;;;;;5013633;28;20407;-55
2023/06/28 11:30:03;;;;;;;10.90;2.10;;;24.30;99.90;;;;;;5013792;28;20461;-55
2023/06/28 11:32:31;;;;;;;4.90;2.17;;;24.70;99.90;;;;;;5013761;28;20399;-55
2023/06/28 11:34:58;;;;;;;5.37;2.10;;;25.90;99.90;;;;;;5014152;28;20936;-55
2023/06/28 11:37:24;;;;;;;5.03;2.50;;;27.20;99.90;;;;;;5013291;28;20467;-55
2023/06/28 11:39:50;;;;;;;6.13;2.00;;;28.10;99.90;;;;;;5013409;28;20453;-53
2023/06/28 11:42:18;;;;;;;4.27;1.80;;;28.50;99.90;;;;;;5013106;28;20436;-53
2023/06/28 11:44:46;;;;;;;4.57;2.00;;;28.80;99.90;;;;;;5013067;28;20578;-56
2023/06/28 11:47:12;;;;;;;4.33;1.87;;;29.10;99.90;;;;;;5013222;28;20427;-53
2023/06/28 11:49:38;;;;;;;2.83;1.60;;;29.40;99.90;;;;;;5015198;28;20423;-53
2023/06/28 11:52:04;;;;;;;3.67;2.00;;;30.10;99.90;;;;;;5016845;28;20447;-54
2023/06/28 11:54:33;;;;;;;4.50;1.60;;;30.50;99.90;;;;;;5017480;28;20239;-53
2023/06/28 11:57:00;;;;;;;5.33;1.63;;;30.50;99.90;;;;;;5017271;28;20466;-53
2023/06/28 11:59:26;;;;;;;3.20;1.63;;;30.20;99.90;;;;;;5017207;28;20414;-54
2023/06/28 12:02:03;;;;;;;3.93;2.13;;;30.00;99.90;;;;;;5016431;28;20512;-55
2023/06/28 12:04:29;;;;;;;3.13;1.70;;;30.00;99.90;;;;;;5016931;28;20481;-54
2023/06/28 12:06:55;;;;;;;3.63;1.60;;;30.10;99.90;;;;;;5017215;28;20794;-54
2023/06/28 12:09:21;;;;;;;5.17;1.83;;;30.40;99.90;;;;;;5017411;28;20184;-53
2023/06/28 12:11:58;;;;;;;4.40;1.97;;;29.60;99.90;;;;;;5017209;28;20181;-54
2023/06/28 12:14:27;;;;;;;3.27;1.80;;;28.50;99.90;;;;;;5016864;28;20403;-54
2023/06/28 12:16:53;;;;;;;3.40;1.83;;;27.40;99.90;;;;;;5016713;28;20473;-54
2023/06/28 12:19:19;;;;;;;4.57;1.90;;;27.70;99.90;;;;;;5017298;28;20419;-53
2023/06/28 12:21:45;;;;;;;3.80;1.90;;;28.60;99.90;;;;;;5017024;28;20891;-55
2023/06/28 12:24:20;;;;;;;5.33;1.80;;;29.50;99.90;;;;;;5017009;28;20411;-54
2023/06/28 12:26:59;;;;;;;4.53;2.20;;;29.90;99.90;;;;;;5016881;28;20522;-54
2023/06/28 12:29:26;;;;;;;3.50;2.00;;;30.20;99.90;;;;;;5016561;28;20473;-55
2023/06/28 12:31:53;;;;;;;3.50;1.70;;;30.50;99.90;;;;;;5016601;28;20431;-54
2023/06/28 12:34:22;;;;;;;5.57;2.10;;;29.60;99.90;;;;;;5016553;28;20884;-53
2023/06/28 12:36:58;;;;;;;4.97;1.93;;;29.40;99.90;;;;;;5016632;28;20466;-55
2023/06/28 12:39:26;;;;;;;3.00;1.73;;;29.90;99.90;;;;;;5016263;28;20423;-54
2023/06/28 12:42:05;;;;;;;4.27;2.10;;;30.60;99.90;;;;;;5016721;28;20512;-55
2023/06/28 12:44:53;;;;;;;2.30;2.00;;;30.60;99.90;;;;;;5016808;28;20509;-53